createdAt,value
2022-09-10T00:02:02.347Z,1.45
2022-09-10T00:04:28.986Z,1.40
2022-09-10T00:06:56.270Z,1.85
2022-09-10T00:09:23.647Z,2.05
2022-09-10T00:11:50.447Z,1.10
2022-09-10T00:14:21.313Z,1.45
2022-09-10T00:16:48.465Z,1.20
2022-09-10T00:19:16.086Z,1.08
2022-09-10T00:21:44.402Z,1.33
2022-09-10T00:24:11.262Z,1.50
2022-09-10T00:26:39.465Z,1.35
2022-09-10T00:29:09.253Z,1.30
2022-09-10T00:31:37.237Z,1.60
2022-09-10T00:34:05.866Z,1.25
2022-09-10T00:36:36.251Z,1.50
2022-09-10T00:39:07.135Z,1.33
2022-09-10T00:41:36.694Z,1.02
2022-09-10T00:44:06.698Z,2.42
2022-09-10T00:46:44.359Z,2.65
2022-09-10T00:49:32.321Z,1.50
2022-09-10T00:52:00.888Z,3.03
2022-09-10T00:54:29.565Z,2.83
2022-09-10T00:57:02.600Z,4.50
2022-09-10T00:59:31.018Z,3.92
2022-09-10T01:01:59.647Z,2.17
2022-09-10T01:04:28.713Z,1.90
2022-09-10T01:06:56.121Z,1.60
2022-09-10T01:09:24.180Z,1.90
2022-09-10T01:12:06.923Z,1.52
2022-09-10T01:14:51.541Z,1.80
2022-09-10T01:17:45.587Z,1.10
2022-09-10T01:21:12.985Z,1.20
2022-09-10T01:24:12.711Z,1.08
2022-09-10T01:26:59.036Z,1.88
2022-09-10T01:29:52.198Z,1.10
2022-09-10T01:32:57.908Z,0.80
2022-09-10T01:35:57.039Z,0.85
2022-09-10T01:38:27.722Z,1.25
2022-09-10T01:40:56.218Z,1.05
2022-09-10T01:43:25.109Z,1.30
2022-09-10T01:46:20.718Z,1.15
2022-09-10T01:48:59.845Z,1.20
2022-09-10T01:51:42.002Z,0.93
2022-09-10T01:55:04.006Z,0.88
2022-09-10T01:57:52.963Z,1.70
2022-09-10T02:00:21.979Z,1.10
2022-09-10T02:02:57.743Z,1.20
2022-09-10T02:05:30.255Z,1.02
2022-09-10T02:08:03.726Z,1.00
2022-09-10T02:10:30.824Z,1.40
2022-09-10T02:12:58.258Z,1.10
2022-09-10T02:15:56.747Z,1.27
2022-09-10T02:18:26.848Z,1.17
2022-09-10T02:20:56.514Z,0.95
2022-09-10T02:23:31.428Z,1.10
2022-09-10T02:25:58.402Z,1.15
2022-09-10T02:28:28.389Z,0.98
2022-09-10T02:30:55.067Z,1.10
2022-09-10T02:33:21.932Z,1.20
2022-09-10T02:35:49.740Z,1.10
2022-09-10T02:38:18.099Z,1.58
2022-09-10T02:40:49.410Z,1.13
2022-09-10T02:43:17.314Z,1.17
2022-09-10T02:45:44.653Z,0.90
2022-09-10T02:48:11.318Z,1.17
2022-09-10T02:50:38.542Z,1.00
2022-09-10T02:53:05.665Z,1.60
2022-09-10T02:55:32.703Z,1.10
2022-09-10T02:57:59.316Z,0.80
2022-09-10T03:00:26.075Z,0.95
2022-09-10T03:03:00.881Z,0.98
2022-09-10T03:05:29.870Z,1.10
2022-09-10T03:07:57.438Z,0.98
2022-09-10T03:10:24.447Z,1.27
2022-09-10T03:12:51.071Z,0.93
2022-09-10T03:15:20.533Z,1.33
2022-09-10T03:17:48.110Z,1.52
2022-09-10T03:20:14.972Z,0.73
2022-09-10T03:22:41.551Z,1.45
2022-09-10T03:25:11.704Z,1.08
2022-09-10T03:27:38.733Z,0.93
2022-09-10T03:30:08.289Z,1.00
2022-09-10T03:32:34.988Z,1.00
2022-09-10T03:35:01.508Z,0.80
2022-09-10T03:37:28.474Z,1.13
2022-09-10T03:39:55.040Z,0.98
2022-09-10T03:42:21.715Z,1.35
2022-09-10T03:44:48.286Z,0.80
2022-09-10T03:47:15.026Z,0.75
2022-09-10T03:49:41.548Z,1.00
2022-09-10T03:52:12.627Z,0.90
2022-09-10T03:54:41.237Z,1.10
2022-09-10T03:57:08.432Z,0.95
2022-09-10T03:59:35.627Z,1.08
2022-09-10T04:02:03.098Z,0.75
2022-09-10T04:04:31.447Z,1.13
2022-09-10T04:06:58.030Z,1.05
2022-09-10T04:09:24.533Z,0.80
2022-09-10T04:11:51.857Z,1.08
2022-09-10T04:14:21.649Z,1.15
2022-09-10T04:16:48.353Z,0.60
2022-09-10T04:19:14.984Z,0.88
2022-09-10T04:21:41.713Z,1.42
2022-09-10T04:24:12.188Z,0.95
2022-09-10T04:26:39.450Z,0.70
2022-09-10T04:29:06.907Z,0.65
2022-09-10T04:31:33.553Z,0.55
2022-09-10T04:34:08.504Z,0.63
2022-09-10T04:36:35.054Z,0.70
2022-09-10T04:39:02.221Z,0.73
2022-09-10T04:41:30.549Z,1.70
2022-09-10T04:43:58.535Z,1.13
2022-09-10T04:46:25.894Z,0.77
2022-09-10T04:48:54.356Z,0.90
2022-09-10T04:51:23.431Z,1.10
2022-09-10T04:53:53.256Z,1.02
2022-09-10T04:56:24.203Z,1.10
2022-09-10T04:58:51.732Z,0.90
2022-09-10T05:01:19.072Z,0.90
2022-09-10T05:03:49.245Z,0.60
2022-09-10T05:06:15.855Z,0.88
2022-09-10T05:08:45.954Z,1.20
2022-09-10T05:11:13.210Z,2.00
2022-09-10T05:13:40.411Z,0.88
2022-09-10T05:16:07.765Z,1.67
2022-09-10T05:18:34.908Z,0.93
2022-09-10T05:21:02.248Z,0.70
2022-09-10T05:23:28.893Z,0.70
2022-09-10T05:25:58.320Z,0.85
2022-09-10T05:28:26.735Z,0.73
2022-09-10T05:30:53.338Z,0.80
2022-09-10T05:33:23.019Z,1.08
2022-09-10T05:35:52.756Z,0.80
2022-09-10T05:38:20.945Z,1.17
2022-09-10T05:40:48.200Z,1.17
2022-09-10T05:43:14.925Z,1.23
2022-09-10T05:45:43.502Z,1.10
2022-09-10T05:48:10.173Z,0.82
2022-09-10T05:50:38.434Z,1.50
2022-09-10T05:53:05.306Z,0.75
2022-09-10T05:55:33.295Z,1.10
2022-09-10T05:58:00.589Z,1.38
2022-09-10T06:00:27.416Z,1.40
2022-09-10T06:03:01.250Z,1.02
2022-09-10T06:05:33.065Z,1.55
2022-09-10T06:08:05.391Z,1.40
2022-09-10T06:10:36.855Z,1.52
2022-09-10T06:13:03.400Z,1.30
2022-09-10T06:15:33.119Z,1.33
2022-09-10T06:18:01.815Z,1.23
2022-09-10T06:20:28.945Z,1.33
2022-09-10T06:22:55.678Z,1.90
2022-09-10T06:25:22.477Z,1.55
2022-09-10T06:27:49.038Z,1.63
2022-09-10T06:30:17.546Z,1.50
2022-09-10T06:32:47.190Z,1.10
2022-09-10T06:35:14.243Z,1.17
2022-09-10T06:37:41.043Z,1.42
2022-09-10T06:40:09.794Z,1.30
2022-09-10T06:42:37.064Z,1.17
2022-09-10T06:45:12.567Z,1.00
2022-09-10T06:48:37.724Z,1.88
2022-09-10T06:50:53.310Z,1.00
2022-09-10T06:53:23.625Z,1.88
2022-09-10T06:55:52.311Z,1.58
2022-09-10T06:58:21.431Z,1.02
2022-09-10T07:00:48.203Z,1.95
2022-09-10T07:03:19.407Z,1.10
2022-09-10T07:05:47.049Z,1.40
2022-09-10T07:08:16.024Z,1.10
2022-09-10T07:10:44.817Z,0.85
2022-09-10T07:13:15.191Z,1.40
2022-09-10T07:15:46.751Z,0.98
2022-09-10T07:18:15.688Z,0.98
2022-09-10T07:20:43.711Z,0.85
2022-09-10T07:23:12.846Z,1.00
2022-09-10T07:25:42.043Z,0.70
2022-09-10T07:28:18.129Z,1.15
2022-09-10T07:30:47.428Z,1.52
2022-09-10T07:33:15.138Z,0.98
2022-09-10T07:35:43.331Z,1.30
2022-09-10T07:38:16.901Z,1.40
2022-09-10T07:43:12.731Z,1.20
2022-09-10T07:45:40.462Z,1.13
2022-09-10T07:48:08.349Z,1.25
2022-09-10T07:50:38.287Z,0.85
2022-09-10T07:53:05.533Z,1.02
2022-09-10T07:55:32.986Z,1.58
2022-09-10T07:58:00.407Z,0.90
2022-09-10T08:00:29.142Z,1.00
2022-09-10T08:02:59.419Z,1.20
2022-09-10T08:05:28.749Z,0.90
2022-09-10T08:07:55.683Z,0.85
2022-09-10T08:10:25.204Z,0.93
2022-09-10T08:12:52.233Z,0.90
2022-09-10T08:15:19.810Z,0.63
2022-09-10T08:17:46.950Z,0.70
2022-09-10T08:20:14.723Z,0.70
2022-09-10T08:22:43.911Z,0.80
2022-09-10T08:25:10.955Z,0.90
2022-09-10T08:27:38.606Z,1.17
2022-09-10T08:30:08.922Z,0.70
2022-09-10T08:32:37.035Z,0.70
2022-09-10T08:35:06.755Z,0.75
2022-09-10T08:37:34.197Z,0.70
2022-09-10T08:40:01.848Z,0.82
2022-09-10T08:42:56.711Z,0.98
2022-09-10T08:45:28.958Z,0.52
2022-09-10T08:48:23.240Z,0.60
2022-09-10T08:51:02.967Z,0.55
2022-09-10T08:53:38.077Z,0.70
2022-09-10T08:56:10.399Z,0.68
2022-09-10T08:58:44.691Z,0.70
2022-09-10T09:01:18.334Z,0.63
2022-09-10T09:03:47.100Z,0.50
2022-09-10T09:06:44.344Z,0.63
2022-09-10T09:09:15.663Z,0.70
2022-09-10T09:11:59.037Z,0.77
2022-09-10T09:14:59.175Z,0.60
2022-09-10T09:17:56.625Z,0.50
2022-09-10T09:20:54.461Z,0.70
2022-09-10T09:23:33.333Z,0.43
2022-09-10T09:26:11.317Z,0.50
2022-09-10T09:28:51.603Z,0.40
2022-09-10T09:31:30.029Z,0.70
2022-09-10T09:34:14.595Z,0.75
2022-09-10T09:36:47.579Z,1.08
2022-09-10T09:39:25.811Z,0.45
2022-09-10T09:42:19.698Z,0.70
2022-09-10T09:45:02.147Z,0.55
2022-09-10T09:47:30.084Z,0.52
2022-09-10T09:49:58.145Z,0.50
2022-09-10T09:52:27.383Z,0.68
2022-09-10T09:55:15.937Z,0.75
2022-09-10T09:57:43.126Z,0.45
2022-09-10T10:00:33.481Z,0.80
2022-09-10T10:03:15.034Z,0.60
2022-09-10T10:05:42.921Z,0.65
2022-09-10T10:08:34.105Z,0.70
2022-09-10T10:11:01.483Z,0.60
2022-09-10T10:13:43.197Z,0.80
2022-09-10T10:16:23.849Z,0.73
2022-09-10T10:18:50.959Z,0.90
2022-09-10T10:21:36.847Z,0.85
2022-09-10T10:24:04.127Z,1.08
2022-09-10T10:26:33.611Z,0.77
2022-09-10T10:29:16.351Z,0.80
2022-09-10T10:31:45.480Z,0.60
2022-09-10T10:34:18.051Z,0.50
2022-09-10T10:36:57.129Z,0.75
2022-09-10T10:39:45.376Z,0.80
2022-09-10T10:42:39.901Z,1.00
2022-09-10T10:45:31.034Z,0.77
2022-09-10T10:48:25.121Z,0.68
2022-09-10T10:51:17.248Z,0.80
2022-09-10T10:53:53.768Z,0.65
2022-09-10T10:56:26.585Z,0.73
2022-09-10T10:59:14.755Z,0.70
2022-09-10T11:01:48.539Z,0.77
2022-09-10T11:04:24.360Z,0.70
2022-09-10T11:07:16.728Z,0.70
2022-09-10T11:09:51.840Z,1.08
2022-09-10T11:12:31.559Z,0.70
2022-09-10T11:15:02.150Z,0.90
2022-09-10T11:17:39.582Z,0.60
2022-09-10T11:20:28.405Z,1.25
2022-09-10T11:23:16.779Z,0.60
2022-09-10T11:26:08.896Z,1.20
2022-09-10T11:28:52.182Z,0.82
2022-09-10T11:31:33.826Z,0.70
2022-09-10T11:34:38.345Z,0.85
2022-09-10T11:37:10.794Z,0.70
2022-09-10T11:39:48.652Z,0.80
2022-09-10T11:42:39.789Z,0.93
2022-09-10T11:45:25.992Z,1.10
2022-09-10T11:48:00.219Z,1.60
2022-09-10T11:50:34.935Z,0.85
2022-09-10T11:53:03.892Z,0.98
2022-09-10T11:56:05.963Z,0.88
2022-09-10T11:58:44.458Z,0.90
2022-09-10T12:01:38.665Z,1.10
2022-09-10T12:04:39.251Z,0.98
2022-09-10T12:07:37.037Z,1.05
2022-09-10T12:10:23.085Z,0.90
2022-09-10T12:12:51.080Z,1.17
2022-09-10T12:15:33.923Z,0.80
2022-09-10T12:18:06.919Z,0.93
2022-09-10T12:20:42.211Z,0.88
2022-09-10T12:25:42.688Z,1.08
2022-09-10T12:28:41.823Z,1.10
2022-09-10T12:31:11.522Z,0.80
2022-09-10T12:33:43.989Z,1.23
2022-09-10T12:36:14.845Z,1.00
2022-09-10T12:39:06.954Z,1.10
2022-09-10T12:41:36.041Z,1.10
2022-09-10T12:44:24.775Z,0.90
2022-09-10T12:47:16.396Z,1.13
2022-09-10T12:49:54.985Z,0.90
2022-09-10T12:52:49.198Z,1.02
2022-09-10T12:55:29.108Z,0.75
2022-09-10T12:58:16.375Z,1.05
2022-09-10T13:00:54.022Z,1.30
2022-09-10T13:03:22.556Z,1.02
2022-09-10T13:05:53.188Z,1.00
2022-09-10T13:08:38.032Z,0.98
2022-09-10T13:11:15.690Z,1.03
2022-09-10T13:13:49.065Z,1.10
2022-09-10T13:16:26.470Z,1.70
2022-09-10T13:19:12.948Z,1.15
2022-09-10T13:21:45.730Z,0.90
2022-09-10T13:24:32.336Z,1.00
2022-09-10T13:27:22.640Z,1.05
2022-09-10T13:30:11.518Z,1.42
2022-09-10T13:32:55.324Z,1.00
2022-09-10T13:35:59.122Z,0.77
2022-09-10T13:38:53.978Z,0.70
2022-09-10T13:41:32.499Z,0.98
2022-09-10T13:44:07.843Z,0.75
2022-09-10T13:46:42.138Z,0.75
2022-09-10T13:49:17.064Z,1.00
2022-09-10T13:51:53.017Z,1.23
2022-09-10T13:54:23.599Z,0.90
2022-09-10T13:56:50.717Z,0.65
2022-09-10T13:59:30.698Z,0.82
2022-09-10T14:02:00.144Z,0.70
2022-09-10T14:04:44.742Z,0.88
2022-09-10T14:07:29.436Z,0.80
2022-09-10T14:10:03.147Z,0.60
2022-09-10T14:12:35.933Z,0.88
2022-09-10T14:15:07.394Z,0.65
2022-09-10T14:17:43.583Z,1.17
2022-09-10T14:20:34.417Z,0.90
2022-09-10T14:23:08.639Z,1.00
2022-09-10T14:25:39.601Z,0.95
2022-09-10T14:28:16.673Z,1.15
2022-09-10T14:30:46.049Z,0.93
2022-09-10T14:33:28.891Z,0.73
2022-09-10T14:36:02.237Z,0.95
2022-09-10T14:38:35.231Z,1.05
2022-09-10T14:41:08.829Z,0.80
2022-09-10T14:43:39.424Z,0.85
2022-09-10T14:46:10.656Z,0.80
2022-09-10T14:48:42.687Z,0.75
2022-09-10T14:51:24.096Z,0.82
2022-09-10T14:53:58.691Z,0.63
2022-09-10T14:56:47.028Z,0.95
2022-09-10T14:59:24.916Z,0.82
2022-09-10T15:01:54.971Z,0.90
2022-09-10T15:04:29.139Z,0.60
2022-09-10T15:06:58.712Z,1.05
2022-09-10T15:09:29.178Z,0.93
2022-09-10T15:12:04.051Z,1.10
2022-09-10T15:14:33.960Z,0.80
2022-09-10T15:17:02.530Z,0.90
2022-09-10T15:19:30.219Z,0.60
2022-09-10T15:21:58.817Z,0.70
2022-09-10T15:24:26.600Z,0.80
2022-09-10T15:26:57.056Z,0.50
2022-09-10T15:29:26.706Z,0.88
2022-09-10T15:31:55.245Z,0.70
2022-09-10T15:34:23.127Z,0.85
2022-09-10T15:36:51.437Z,0.40
2022-09-10T15:39:18.634Z,0.65
2022-09-10T15:41:46.937Z,0.75
2022-09-10T15:44:15.563Z,0.63
2022-09-10T15:46:45.922Z,0.70
2022-09-10T15:49:14.267Z,0.70
2022-09-10T15:51:42.334Z,0.50
2022-09-10T15:54:11.786Z,1.17
2022-09-10T15:56:43.262Z,0.85
2022-09-10T15:59:12.203Z,0.60
2022-09-10T16:01:41.728Z,0.90
2022-09-10T16:04:12.583Z,0.70
2022-09-10T16:06:41.245Z,1.02
2022-09-10T16:09:12.689Z,0.90
2022-09-10T16:11:43.665Z,1.27
2022-09-10T16:14:14.577Z,0.70
2022-09-10T16:16:45.322Z,0.57
2022-09-10T16:19:15.317Z,0.70
2022-09-10T16:21:46.765Z,0.77
2022-09-10T16:24:16.274Z,0.70
2022-09-10T16:26:46.797Z,0.70
2022-09-10T16:29:17.376Z,0.50
2022-09-10T16:31:48.985Z,0.98
2022-09-10T16:34:20.229Z,0.90
2022-09-10T16:36:56.675Z,1.00
2022-09-10T16:39:25.429Z,0.85
2022-09-10T16:41:53.670Z,1.35
2022-09-10T16:44:22.201Z,1.48
2022-09-10T16:46:50.775Z,1.38
2022-09-10T16:49:20.748Z,0.70
2022-09-10T16:51:50.431Z,1.10
2022-09-10T16:54:23.414Z,0.90
2022-09-10T16:56:51.836Z,0.70
2022-09-10T16:59:22.757Z,0.82
2022-09-10T17:01:52.586Z,0.98
2022-09-10T17:04:28.524Z,0.95
2022-09-10T17:07:00.778Z,0.73
2022-09-10T17:09:28.527Z,0.88
2022-09-10T17:11:56.808Z,1.13
2022-09-10T17:14:24.860Z,1.00
2022-09-10T17:16:53.015Z,0.80
2022-09-10T17:19:28.801Z,0.95
2022-09-10T17:21:57.339Z,0.73
2022-09-10T17:24:27.951Z,1.13
2022-09-10T17:26:57.754Z,1.50
2022-09-10T17:29:27.113Z,4.43
2022-09-10T17:31:59.046Z,7.18
2022-09-10T17:34:29.010Z,7.88
2022-09-10T17:36:58.023Z,4.97
2022-09-10T17:39:28.945Z,1.50
2022-09-10T17:41:56.821Z,1.20
2022-09-10T17:44:26.395Z,1.38
2022-09-10T17:46:55.729Z,0.95
2022-09-10T17:49:24.029Z,1.15
2022-09-10T17:51:52.620Z,1.48
2022-09-10T17:54:20.835Z,1.02
2022-09-10T17:56:48.848Z,0.90
2022-09-10T17:59:17.213Z,1.13
2022-09-10T18:01:45.908Z,1.00
2022-09-10T18:04:14.403Z,1.05
2022-09-10T18:06:42.586Z,0.70
2022-09-10T18:09:12.642Z,1.77
2022-09-10T18:11:41.865Z,1.33
2022-09-10T18:14:19.832Z,1.00
2022-09-10T18:16:48.261Z,1.02
2022-09-10T18:19:18.632Z,0.90
2022-09-10T18:21:47.435Z,1.38
2022-09-10T18:24:28.074Z,1.02
2022-09-10T18:26:55.955Z,1.60
2022-09-10T18:29:25.726Z,0.98
2022-09-10T18:31:58.732Z,0.85
2022-09-10T18:34:30.927Z,1.92
2022-09-10T18:37:02.619Z,1.00
2022-09-10T18:39:31.482Z,1.27
2022-09-10T18:42:00.598Z,1.25
2022-09-10T18:44:30.780Z,1.13
2022-09-10T18:46:57.375Z,1.33
2022-09-10T18:49:25.157Z,1.23
2022-09-10T18:51:53.138Z,0.85
2022-09-10T18:54:21.157Z,1.23
2022-09-10T18:56:49.027Z,1.10
2022-09-10T18:59:20.244Z,1.33
2022-09-10T19:01:48.058Z,1.20
2022-09-10T19:04:17.723Z,1.10
2022-09-10T19:06:49.140Z,1.00
2022-09-10T19:09:26.871Z,0.93
2022-09-10T19:11:55.468Z,1.95
2022-09-10T19:14:27.677Z,1.83
2022-09-10T19:16:56.406Z,2.28
2022-09-10T19:19:26.630Z,1.10
2022-09-10T19:22:02.834Z,1.55
2022-09-10T19:24:53.515Z,1.10
2022-09-10T19:27:17.082Z,1.02
2022-09-10T19:29:44.394Z,1.10
2022-09-10T19:32:11.414Z,0.95
2022-09-10T19:34:39.000Z,1.90
2022-09-10T19:37:07.056Z,1.10
2022-09-10T19:39:33.693Z,0.90
2022-09-10T19:42:00.578Z,1.20
2022-09-10T19:44:27.337Z,1.02
2022-09-10T19:46:53.912Z,1.40
2022-09-10T19:49:20.506Z,1.08
2022-09-10T19:51:47.393Z,1.08
2022-09-10T19:54:14.413Z,1.20
2022-09-10T19:56:42.549Z,1.90
2022-09-10T19:59:09.860Z,1.10
2022-09-10T20:01:40.041Z,1.15
2022-09-10T20:04:09.716Z,1.10
2022-09-10T20:06:37.604Z,1.02
2022-09-10T20:09:06.315Z,1.08
2022-09-10T20:11:35.113Z,0.80
2022-09-10T20:14:10.182Z,0.90
2022-09-10T20:16:39.244Z,1.02
2022-09-10T20:19:06.840Z,0.93
2022-09-10T20:21:34.303Z,1.02
2022-09-10T20:24:01.246Z,0.90
2022-09-10T20:26:30.663Z,0.77
2022-09-10T20:29:03.920Z,1.00
2022-09-10T20:31:32.524Z,1.27
2022-09-10T20:34:00.998Z,0.90
2022-09-10T20:36:28.527Z,0.93
2022-09-10T20:38:55.996Z,1.10
2022-09-10T20:41:24.164Z,0.90
2022-09-10T20:43:52.224Z,1.73
2022-09-10T20:46:22.289Z,1.00
2022-09-10T20:48:50.995Z,0.90
2022-09-10T20:51:19.224Z,1.20
2022-09-10T20:53:46.214Z,1.35
2022-09-10T20:56:19.707Z,1.05
2022-09-10T20:58:47.477Z,1.20
2022-09-10T21:01:20.013Z,1.05
2022-09-10T21:03:48.407Z,0.95
2022-09-10T21:06:18.296Z,1.20
2022-09-10T21:08:47.540Z,1.17
2022-09-10T21:11:16.442Z,1.10
2022-09-10T21:13:51.542Z,1.00
2022-09-10T21:16:21.073Z,0.93
2022-09-10T21:18:54.721Z,1.15
2022-09-10T21:21:25.645Z,1.00
2022-09-10T21:23:54.993Z,1.48
2022-09-10T21:26:25.181Z,0.80
2022-09-10T21:28:59.960Z,1.17
2022-09-10T21:31:28.334Z,1.00
2022-09-10T21:34:00.642Z,1.02
2022-09-10T21:36:29.385Z,1.02
2022-09-10T21:39:00.972Z,0.88
2022-09-10T21:41:39.998Z,1.02
2022-09-10T21:44:15.144Z,1.20
2022-09-10T21:46:43.321Z,0.95
2022-09-10T21:49:10.063Z,0.80
2022-09-10T21:51:36.930Z,0.75
2022-09-10T21:54:04.757Z,1.15
2022-09-10T21:56:31.776Z,1.00
2022-09-10T21:59:00.362Z,0.90
2022-09-10T22:01:30.063Z,1.00
2022-09-10T22:04:00.006Z,1.33
2022-09-10T22:06:28.736Z,1.00
2022-09-10T22:08:58.411Z,0.77
2022-09-10T22:11:37.593Z,1.23
2022-09-10T22:14:12.041Z,1.45
2022-09-10T22:16:39.021Z,1.13
2022-09-10T22:19:09.369Z,1.38
2022-09-10T22:21:38.524Z,1.20
2022-09-10T22:24:06.457Z,1.45
2022-09-10T22:26:34.484Z,1.30
2022-09-10T22:29:02.622Z,1.30
2022-09-10T22:31:34.026Z,1.00
2022-09-10T22:34:03.334Z,1.20
2022-09-10T22:36:32.932Z,0.90
2022-09-10T22:39:02.456Z,0.88
2022-09-10T22:41:31.583Z,1.00
2022-09-10T22:43:58.392Z,0.95
2022-09-10T22:46:25.094Z,0.93
2022-09-10T22:48:51.736Z,1.23
2022-09-10T22:51:24.483Z,1.20
2022-09-10T22:53:53.175Z,1.30
2022-09-10T22:56:22.142Z,1.00
2022-09-10T22:58:51.618Z,0.90
2022-09-10T23:01:21.040Z,0.82
2022-09-10T23:03:48.511Z,0.93
2022-09-10T23:06:18.100Z,0.70
2022-09-10T23:08:47.281Z,0.75
2022-09-10T23:11:22.575Z,0.80
2022-09-10T23:16:29.195Z,1.77
2022-09-10T23:18:57.428Z,0.70
2022-09-10T23:21:25.868Z,1.05
2022-09-10T23:23:57.480Z,0.90
2022-09-10T23:26:24.749Z,0.82
2022-09-10T23:28:52.050Z,0.93
2022-09-10T23:31:20.612Z,1.02
2022-09-10T23:33:52.839Z,0.80
2022-09-10T23:36:19.389Z,0.90
2022-09-10T23:38:46.088Z,1.50
2022-09-10T23:41:13.105Z,0.80
2022-09-10T23:43:40.350Z,1.00
2022-09-10T23:46:07.697Z,0.90
2022-09-10T23:48:35.383Z,0.80
2022-09-10T23:51:02.822Z,0.98
2022-09-10T23:53:29.936Z,0.70
2022-09-10T23:55:57.313Z,0.73
2022-09-10T23:58:24.132Z,0.68
